Othello, WA (99344)

10:52 PM PST en Febrero 28, 2015 (GMT -0800)
N Royal Lake | Change Station
CLOSE
Current Station
Estación meteorológica personal
Location: Othello, WA
Altura: 883 ft
Estaciones meteorológicas cercanas

Alt 883 ft 46.88 °N, 119.37 °W | Updated 14 minutes ago

Despejado
Despejado
26.2 ° F
Sensación térmica 26 ° F
N
0.0
Viento Variable Viento desde Norte

Hoy
Alta -- | Baja -- ° F
--% Posibilidad de precipitaciones
Ayer
Alta -- | Baja -- ° F
Precip. -- pul
6:39 AM 5:41 PM
Gibosa creciente, 83% visible
Presión 30.25 pul
Visibilidad 10.0 Millas
Nubes Despejado
Vientos helados 26 ° F
Punto de rocío 18 ° F
Humedad 70%
Precipitaciones 0.00 pul
Espesor de la nieve No disponible.
UV 0 de una escala de 12
Polen 8.10 de una escala de 12
Calidad del aire No disponible.
Flu Activity No disponible.
METAR KMWH 010552Z AUTO 17005KT 10SM CLR 01/M06 A3022 RMK AO2 SLP243 T00061061 10100 20006 53016

More Conditions Fewer Conditions

Presión 30.25 pul
Visibilidad 10.0 Millas
Nubes Despejado
Vientos helados 26 ° F
Punto de rocío 18 ° F
Humedad 70%
Precipitaciones 0.00 pul
Espesor de la nieve No disponible.
UV 0 de una escala de 12
Polen 8.10 de una escala de 12
Calidad del aire No disponible.
Flu Activity No disponible.
METAR KMWH 010552Z AUTO 17005KT 10SM CLR 01/M06 A3022 RMK AO2 SLP243 T00061061 10100 20006 53016

More Conditions Fewer Conditions

10-Day Weather Forecast

Almanac

Astronomía

Feb. 28, 2015 Salida Puesta
Hora real
Crepúsculo civil
Crepúsculo náutico
Crepúsculo astronómico
Luna
Horas de luz
Horas de luz
Tomorrow will be .
, % of the Moon is Illuminated

Extremos de hoy

Máximos del estado Bajos del estado

Community

WunderPhotos

Upload Photos

1,801,345 ¡fotos cargadas!

WunderBlogs® & News

Nearby

Calidad del aire

  Calidad del aire Índice AQ Contaminante
Not available.

Grosos de nieve

Estación Profundido Altura

Actividad de terremotos

Ciudad Distance Mag. Tiempo y dato
Magnitud mínima muestra es 2,5.

Temperaturas de aguas costeras

Lugar Temperatura

Estaciones meteorológicas cercanas